createdAt,value
2022-11-20T05:30:35.718Z,96.64
2022-11-20T05:31:35.674Z,96.50
2022-11-20T05:32:35.680Z,96.91
2022-11-20T05:33:35.709Z,97.02
2022-11-20T05:34:35.648Z,97.02
2022-11-20T05:35:35.654Z,97.02
2022-11-20T05:36:35.632Z,96.86
2022-11-20T05:37:35.615Z,97.02
2022-11-20T05:38:35.634Z,97.12
2022-11-20T05:39:35.584Z,97.12
2022-11-20T05:40:35.600Z,97.12
2022-11-20T05:41:35.561Z,96.70
2022-11-20T05:42:35.558Z,96.81
2022-11-20T05:43:35.571Z,97.17
2022-11-20T05:44:35.552Z,97.28
2022-11-20T05:45:35.521Z,96.86
2022-11-20T05:46:35.518Z,97.02
2022-11-20T05:47:35.499Z,97.17
2022-11-20T05:48:35.501Z,96.86
2022-11-20T05:49:35.477Z,97.28
2022-11-20T05:50:35.510Z,97.17
2022-11-20T05:51:35.480Z,96.97
2022-11-20T05:52:35.474Z,96.76
2022-11-20T05:53:35.447Z,96.76
2022-11-20T05:54:35.454Z,96.66
2022-11-20T05:55:35.415Z,96.81
2022-11-20T05:56:35.405Z,96.81
2022-11-20T05:57:35.386Z,96.66
2022-11-20T05:58:35.409Z,96.66
2022-11-20T05:59:35.394Z,96.66
2022-11-20T06:00:35.364Z,96.55
2022-11-20T06:01:35.362Z,96.50
2022-11-20T06:02:35.395Z,96.60
2022-11-20T06:03:35.336Z,96.55
2022-11-20T06:04:35.326Z,96.55
2022-11-20T06:05:35.306Z,96.66
2022-11-20T06:06:35.306Z,96.34
2022-11-20T06:07:35.323Z,96.91
2022-11-20T06:08:35.366Z,96.70
2022-11-20T06:09:35.316Z,96.55
2022-11-20T06:10:35.258Z,96.66
2022-11-20T06:11:35.277Z,96.55
2022-11-20T06:12:35.251Z,96.81
2022-11-20T06:13:39.139Z,96.81
2022-11-20T06:14:36.230Z,97.17
2022-11-20T06:15:35.196Z,96.86
2022-11-20T06:16:35.193Z,96.97
2022-11-20T06:17:35.191Z,97.17
2022-11-20T06:18:35.167Z,96.76
2022-11-20T06:19:35.218Z,96.97
2022-11-20T06:20:40.810Z,96.86
2022-11-20T06:21:36.133Z,96.66
2022-11-20T06:22:35.141Z,97.17
2022-11-20T06:23:35.107Z,96.76
2022-11-20T06:24:35.107Z,96.76
2022-11-20T06:25:35.091Z,96.66
2022-11-20T06:26:35.130Z,96.55
2022-11-20T06:27:35.063Z,96.55
2022-11-20T06:28:35.066Z,96.97
2022-11-20T06:29:35.043Z,97.17
2022-11-20T06:30:35.065Z,97.17
2022-11-20T06:31:35.022Z,96.45
2022-11-20T06:32:35.026Z,96.66
2022-11-20T06:33:34.994Z,96.97
2022-11-20T06:34:35.106Z,97.17
2022-11-20T06:35:34.979Z,96.82
2022-11-20T06:36:34.960Z,96.86
2022-11-20T06:37:35.020Z,97.17
2022-11-20T06:38:34.960Z,96.76
2022-11-20T06:39:34.938Z,96.41
2022-11-20T06:40:34.953Z,96.72
2022-11-20T06:41:34.920Z,96.24
2022-11-20T06:42:34.945Z,95.83
2022-11-20T06:43:34.895Z,95.83
2022-11-20T06:44:34.885Z,95.99
2022-11-20T06:45:34.870Z,96.03
2022-11-20T06:46:34.887Z,95.99
2022-11-20T06:47:34.849Z,95.89
2022-11-20T06:48:34.910Z,95.72
2022-11-20T06:49:34.828Z,95.37
2022-11-20T06:50:34.827Z,95.51
2022-11-20T06:51:34.821Z,95.47
2022-11-20T06:52:38.250Z,95.47
2022-11-20T06:53:35.779Z,95.47
2022-11-20T06:54:34.786Z,95.68
2022-11-20T06:55:34.802Z,95.26
2022-11-20T06:56:34.799Z,95.37
2022-11-20T06:57:34.758Z,95.26
2022-11-20T06:58:34.737Z,95.16
2022-11-20T06:59:34.720Z,95.37
2022-11-20T07:00:34.777Z,95.47
2022-11-20T07:01:34.734Z,95.47
2022-11-20T07:02:34.707Z,95.47
2022-11-20T07:03:34.681Z,95.78
2022-11-20T07:04:34.685Z,95.68
2022-11-20T07:05:34.659Z,95.68
2022-11-20T07:06:34.740Z,95.95
2022-11-20T07:07:34.692Z,95.99
2022-11-20T07:08:34.633Z,95.99
2022-11-20T07:09:34.626Z,95.99
2022-11-20T07:10:34.610Z,96.09
2022-11-20T07:11:34.609Z,95.68
2022-11-20T07:12:34.586Z,95.68
2022-11-20T07:13:34.614Z,95.68
2022-11-20T07:14:34.557Z,95.57
2022-11-20T07:15:34.564Z,95.68
2022-11-20T07:16:34.565Z,95.74
2022-11-20T07:17:34.531Z,96.09
2022-11-20T07:18:34.515Z,95.89
2022-11-20T07:19:34.506Z,95.78
2022-11-20T07:20:34.496Z,95.89
2022-11-20T07:21:34.540Z,95.84
2022-11-20T07:22:34.464Z,95.47
2022-11-20T07:23:34.470Z,95.57
2022-11-20T07:24:34.488Z,95.37
2022-11-20T07:25:34.464Z,95.89
2022-11-20T07:26:34.461Z,95.89
2022-11-20T07:27:34.435Z,95.99
2022-11-20T07:28:34.408Z,96.09
2022-11-20T07:29:34.432Z,95.99
2022-11-20T07:30:34.400Z,96.20
2022-11-20T07:31:35.153Z,95.99
2022-11-20T07:32:34.356Z,96.20
2022-11-20T07:33:34.409Z,96.82
2022-11-20T07:34:34.340Z,96.72
2022-11-20T07:35:34.400Z,96.67
2022-11-20T07:36:34.355Z,96.51
2022-11-20T07:37:34.312Z,96.30
2022-11-20T07:38:34.325Z,96.47
2022-11-20T07:39:34.309Z,96.82
2022-11-20T07:40:34.281Z,96.78
2022-11-20T07:41:34.312Z,96.57
2022-11-20T07:42:34.266Z,96.82
2022-11-20T07:43:38.473Z,96.57
2022-11-20T07:44:35.287Z,96.78
2022-11-20T07:45:34.252Z,96.67
2022-11-20T07:46:34.222Z,96.67
2022-11-20T07:47:34.205Z,96.78
2022-11-20T07:48:34.187Z,96.78
2022-11-20T07:49:34.228Z,96.51
2022-11-20T07:50:34.159Z,96.41
2022-11-20T07:51:34.211Z,96.72
2022-11-20T07:52:34.137Z,95.78
2022-11-20T07:53:34.135Z,95.93
2022-11-20T07:54:34.161Z,96.34
2022-11-20T07:55:34.131Z,96.66
2022-11-20T07:56:34.109Z,96.66
2022-11-20T07:57:34.094Z,97.34
2022-11-20T07:58:34.134Z,97.13
2022-11-20T07:59:34.104Z,96.82
2022-11-20T08:00:34.097Z,96.92
2022-11-20T08:01:34.078Z,97.03
2022-11-20T08:02:34.032Z,96.92
2022-11-20T08:03:34.046Z,97.34
2022-11-20T08:04:34.028Z,96.72
2022-11-20T08:05:34.027Z,96.92
2022-11-20T08:06:34.026Z,96.78
2022-11-20T08:07:34.046Z,96.36
2022-11-20T08:08:36.089Z,96.15
2022-11-20T08:09:34.012Z,95.16
2022-11-20T08:10:34.006Z,95.26
2022-11-20T08:11:34.014Z,95.68
2022-11-20T08:12:34.037Z,95.37
2022-11-20T08:13:33.965Z,95.32
2022-11-20T08:14:34.062Z,95.64
2022-11-20T08:15:33.936Z,95.95
2022-11-20T08:16:33.931Z,96.57
2022-11-20T08:17:33.896Z,96.15
2022-11-20T08:18:33.955Z,95.84
2022-11-20T08:19:33.936Z,95.59
2022-11-20T08:20:33.926Z,95.59
2022-11-20T08:21:38.003Z,95.12
2022-11-20T08:22:33.846Z,94.49
2022-11-20T08:23:33.853Z,94.91
2022-11-20T08:24:33.865Z,94.91
2022-11-20T08:25:33.803Z,94.70
2022-11-20T08:26:33.819Z,95.01
2022-11-20T08:27:33.805Z,95.22
2022-11-20T08:28:33.772Z,94.81
2022-11-20T08:29:33.743Z,94.60
2022-11-20T08:30:33.757Z,94.97
2022-11-20T08:31:33.756Z,95.01
2022-11-20T08:32:33.705Z,94.18
2022-11-20T08:33:33.781Z,95.12
2022-11-20T08:34:33.722Z,94.70
2022-11-20T08:35:33.698Z,94.39
2022-11-20T08:36:33.657Z,94.49
2022-11-20T08:37:33.651Z,94.60
2022-11-20T08:38:33.698Z,94.39
2022-11-20T08:39:33.634Z,94.45
2022-11-20T08:40:33.665Z,94.49
2022-11-20T08:41:33.611Z,94.24
2022-11-20T08:42:33.651Z,94.35
2022-11-20T08:43:33.625Z,94.56
2022-11-20T08:44:33.582Z,94.76
2022-11-20T08:45:34.988Z,95.07
2022-11-20T08:46:33.561Z,94.45
2022-11-20T08:47:33.565Z,94.35
2022-11-20T08:48:33.531Z,94.35
2022-11-20T08:49:33.527Z,94.66
2022-11-20T08:50:34.160Z,94.35
2022-11-20T08:51:33.516Z,94.87
2022-11-20T08:52:38.504Z,94.45
2022-11-20T08:53:34.478Z,94.24
2022-11-20T08:54:33.468Z,94.04
2022-11-20T08:55:33.485Z,94.14
2022-11-20T08:56:33.474Z,94.56
2022-11-20T08:57:33.438Z,94.62
2022-11-20T08:58:49.118Z,94.82
2022-11-20T09:00:04.370Z,94.62
2022-11-20T09:00:34.502Z,94.20
2022-11-20T09:01:33.390Z,94.41
2022-11-20T09:02:33.394Z,94.20
2022-11-20T09:03:33.374Z,93.99
2022-11-20T09:04:33.361Z,93.68
2022-11-20T09:05:33.385Z,93.58
2022-11-20T09:06:33.334Z,94.24
2022-11-20T09:07:34.154Z,94.24
2022-11-20T09:08:33.338Z,94.31
2022-11-20T09:09:33.336Z,95.03
2022-11-20T09:10:33.305Z,94.82
2022-11-20T09:11:33.308Z,95.07
2022-11-20T09:12:33.281Z,94.35
2022-11-20T09:13:33.318Z,95.07
2022-11-20T09:14:33.267Z,94.76
2022-11-20T09:15:33.259Z,94.72
2022-11-20T09:16:33.258Z,95.03
2022-11-20T09:17:33.231Z,94.62
2022-11-20T09:18:33.219Z,95.03
2022-11-20T09:19:35.904Z,94.76
2022-11-20T09:20:33.187Z,94.97
2022-11-20T09:21:33.197Z,94.87
2022-11-20T09:22:33.164Z,94.62
2022-11-20T09:23:33.172Z,94.72
2022-11-20T09:24:33.145Z,94.72
2022-11-20T09:25:33.144Z,94.72
2022-11-20T09:26:33.143Z,94.66
2022-11-20T09:27:33.107Z,95.03
2022-11-20T09:28:33.118Z,94.87
2022-11-20T09:29:33.092Z,94.87
2022-11-20T09:30:33.083Z,95.03
2022-11-20T09:31:33.066Z,96.69
2022-11-20T09:32:33.089Z,95.18
2022-11-20T09:33:33.049Z,95.07
2022-11-20T09:34:33.032Z,94.97
2022-11-20T09:35:33.025Z,94.66
2022-11-20T09:36:33.064Z,95.07
2022-11-20T09:37:33.034Z,94.76
2022-11-20T09:38:32.990Z,94.66
2022-11-20T09:39:32.986Z,94.97
2022-11-20T09:40:32.984Z,94.66
2022-11-20T09:41:32.990Z,94.76
2022-11-20T09:42:32.950Z,95.07
2022-11-20T09:43:34.928Z,95.03
2022-11-20T09:44:32.957Z,94.62
2022-11-20T09:45:32.938Z,95.03
2022-11-20T09:46:32.895Z,94.93
2022-11-20T09:47:32.893Z,94.62
2022-11-20T09:48:32.880Z,94.68
2022-11-20T09:49:33.254Z,94.78
2022-11-20T09:50:32.882Z,94.98
2022-11-20T09:51:32.858Z,94.26
2022-11-20T09:52:32.845Z,93.33
2022-11-20T09:53:32.824Z,92.91
2022-11-20T09:54:32.818Z,93.08
2022-11-20T09:55:32.807Z,92.87
2022-11-20T09:56:32.814Z,92.46
2022-11-20T09:57:32.782Z,92.77
2022-11-20T09:58:32.799Z,92.77
2022-11-20T09:59:32.761Z,92.42
2022-11-20T10:00:32.862Z,92.93
2022-11-20T10:01:32.920Z,93.35
2022-11-20T10:02:32.722Z,92.42
2022-11-20T10:03:32.722Z,91.69
2022-11-20T10:04:36.695Z,91.69
2022-11-20T10:05:32.727Z,91.34
2022-11-20T10:06:32.733Z,91.07
2022-11-20T10:07:33.667Z,90.62
2022-11-20T10:08:32.675Z,90.97
2022-11-20T10:09:32.650Z,91.07
2022-11-20T10:10:32.640Z,90.35
2022-11-20T10:11:32.638Z,90.14
2022-11-20T10:12:32.816Z,89.83
2022-11-20T10:13:33.622Z,89.94
2022-11-20T10:14:32.630Z,89.94
2022-11-20T10:15:32.594Z,90.25
2022-11-20T10:16:36.654Z,90.00
2022-11-20T10:17:33.600Z,90.20
2022-11-20T10:18:32.573Z,89.83
2022-11-20T10:19:32.678Z,89.83
2022-11-20T10:20:32.554Z,90.25
2022-11-20T10:21:32.528Z,90.35
2022-11-20T10:22:32.531Z,91.13
2022-11-20T10:23:32.509Z,90.04
2022-11-20T10:24:32.484Z,89.62
2022-11-20T10:25:32.527Z,90.25
2022-11-20T10:26:32.484Z,90.35
2022-11-20T10:27:32.492Z,90.25
2022-11-20T10:28:32.514Z,91.07
2022-11-20T10:29:32.439Z,91.07
2022-11-20T10:30:32.428Z,90.56
2022-11-20T10:31:32.476Z,90.87
2022-11-20T10:32:32.440Z,90.56
2022-11-20T10:33:50.188Z,90.87
2022-11-20T10:34:33.395Z,91.07
2022-11-20T10:35:32.376Z,90.87
2022-11-20T10:36:32.372Z,91.07
2022-11-20T10:37:32.412Z,90.77
2022-11-20T10:38:32.357Z,90.77
2022-11-20T10:39:33.102Z,91.07
2022-11-20T10:40:32.359Z,90.97
2022-11-20T10:41:35.952Z,90.66
2022-11-20T10:42:32.295Z,90.77
2022-11-20T10:43:32.306Z,90.77
2022-11-20T10:44:32.297Z,90.87
2022-11-20T10:45:32.252Z,90.97
2022-11-20T10:46:32.277Z,89.73
2022-11-20T10:47:32.278Z,90.25
2022-11-20T10:48:32.241Z,91.07
2022-11-20T10:49:32.221Z,90.77
2022-11-20T10:50:32.207Z,90.97
2022-11-20T10:51:32.201Z,91.59
2022-11-20T10:52:32.179Z,91.63
2022-11-20T10:53:32.217Z,91.63
2022-11-20T10:54:32.159Z,92.25
2022-11-20T10:55:32.190Z,92.25
2022-11-20T10:56:32.194Z,92.36
2022-11-20T10:57:32.139Z,92.36
2022-11-20T10:58:32.169Z,92.36
2022-11-20T10:59:32.129Z,91.84
2022-11-20T11:00:32.145Z,91.84
2022-11-20T11:01:32.156Z,91.94
2022-11-20T11:02:32.681Z,92.05
2022-11-20T11:03:32.069Z,92.25
2022-11-20T11:04:32.109Z,92.87
2022-11-20T11:05:32.069Z,92.46
2022-11-20T11:06:32.040Z,92.57
2022-11-20T11:07:32.095Z,92.46
2022-11-20T11:08:32.039Z,92.67
2022-11-20T11:09:32.079Z,92.87
2022-11-20T11:10:32.017Z,92.67
2022-11-20T11:11:31.982Z,92.57
2022-11-20T11:12:32.600Z,92.87
2022-11-20T11:13:31.995Z,92.87
2022-11-20T11:14:31.949Z,92.77
2022-11-20T11:15:31.936Z,92.67
2022-11-20T11:16:31.961Z,92.87
2022-11-20T11:17:31.978Z,92.91
2022-11-20T11:18:31.930Z,93.29
2022-11-20T11:19:31.902Z,93.60
2022-11-20T11:20:31.879Z,93.39
2022-11-20T11:21:31.914Z,93.60
2022-11-20T11:22:31.866Z,93.04
2022-11-20T11:23:31.895Z,93.97
2022-11-20T11:24:42.402Z,95.21
2022-11-20T11:25:32.829Z,95.02
2022-11-20T11:26:31.823Z,96.52
2022-11-20T11:27:31.876Z,95.18
2022-11-20T11:28:31.803Z,94.52
2022-11-20T11:29:31.824Z,93.22
2022-11-20T11:30:31.795Z,91.36
2022-11-20T11:31:31.838Z,90.68
2022-11-20T11:32:31.781Z,89.65
2022-11-20T11:33:31.741Z,90.20
2022-11-20T11:34:31.755Z,90.78
2022-11-20T11:35:31.741Z,90.89
2022-11-20T11:36:31.805Z,91.61
2022-11-20T11:37:31.717Z,91.82
2022-11-20T11:38:31.692Z,91.40
2022-11-20T11:39:31.683Z,91.40
2022-11-20T11:40:31.661Z,91.09
2022-11-20T11:41:31.686Z,91.20
2022-11-20T11:42:31.685Z,91.61
2022-11-20T11:43:35.264Z,91.50
2022-11-20T11:44:32.628Z,91.30
2022-11-20T11:45:31.698Z,91.61
2022-11-20T11:46:31.649Z,91.92
2022-11-20T11:47:31.603Z,92.54
2022-11-20T11:48:31.585Z,92.64
2022-11-20T11:49:31.579Z,91.40
2022-11-20T11:50:31.615Z,91.61
2022-11-20T11:51:31.554Z,90.99
2022-11-20T11:52:31.540Z,91.71
2022-11-20T11:53:31.519Z,92.33
2022-11-20T11:54:31.538Z,92.33
2022-11-20T11:55:31.520Z,92.33
2022-11-20T11:56:31.490Z,91.71
2022-11-20T11:57:31.478Z,92.13
2022-11-20T11:58:31.480Z,91.82
2022-11-20T11:59:31.476Z,91.82
2022-11-20T12:00:31.453Z,91.50
2022-11-20T12:01:31.467Z,91.61
2022-11-20T12:02:31.547Z,91.40
2022-11-20T12:03:31.430Z,92.54
2022-11-20T12:04:31.416Z,92.13
2022-11-20T12:05:31.428Z,92.60
2022-11-20T12:06:31.389Z,91.88
2022-11-20T12:07:46.046Z,92.50
2022-11-20T12:08:32.491Z,91.98
2022-11-20T12:09:31.366Z,91.77
2022-11-20T12:10:31.345Z,91.36
2022-11-20T12:11:31.348Z,90.91
2022-11-20T12:12:31.323Z,91.22
2022-11-20T12:13:31.307Z,90.91
2022-11-20T12:14:31.307Z,90.95
2022-11-20T12:15:31.312Z,91.16
2022-11-20T12:16:31.313Z,91.46
2022-11-20T12:17:31.262Z,91.56
2022-11-20T12:18:31.261Z,91.26
2022-11-20T12:19:31.243Z,91.63
2022-11-20T12:20:31.238Z,91.52
2022-11-20T12:21:31.253Z,91.73
2022-11-20T12:22:31.227Z,91.52
2022-11-20T12:23:31.216Z,91.63
2022-11-20T12:24:31.196Z,92.60
2022-11-20T12:25:31.198Z,91.52
2022-11-20T12:26:31.176Z,91.63
2022-11-20T12:27:31.171Z,91.52
2022-11-20T12:28:31.170Z,91.22
2022-11-20T12:29:31.152Z,91.32
2022-11-20T12:30:31.144Z,91.52
2022-11-20T12:31:31.107Z,91.63
2022-11-20T12:32:31.100Z,91.46
2022-11-20T12:33:31.125Z,91.26
2022-11-20T12:34:31.078Z,91.32
2022-11-20T12:35:31.086Z,91.63
2022-11-20T12:36:31.066Z,91.32
2022-11-20T12:37:31.069Z,91.73
2022-11-20T12:38:31.040Z,91.73
2022-11-20T12:39:31.049Z,91.52
2022-11-20T12:40:31.058Z,91.63
2022-11-20T12:41:31.006Z,91.52
2022-11-20T12:42:31.025Z,92.04
2022-11-20T12:43:31.007Z,92.04
2022-11-20T12:44:30.998Z,92.14
2022-11-20T12:45:30.955Z,92.55
2022-11-20T12:46:30.945Z,92.25
2022-11-20T12:47:30.934Z,92.04
2022-11-20T12:48:30.980Z,92.04
2022-11-20T12:49:30.921Z,91.42
2022-11-20T12:50:35.071Z,91.63
2022-11-20T12:51:30.931Z,92.25
2022-11-20T12:52:30.881Z,91.22
2022-11-20T12:53:30.874Z,91.63
2022-11-20T12:54:30.891Z,91.73
2022-11-20T12:55:30.852Z,92.04
2022-11-20T12:56:30.874Z,92.35
2022-11-20T12:57:30.838Z,92.86
2022-11-20T12:58:30.819Z,91.73
2022-11-20T12:59:30.829Z,92.25
2022-11-20T13:00:30.800Z,92.25
2022-11-20T13:01:30.841Z,92.66
2022-11-20T13:02:30.813Z,92.66
2022-11-20T13:03:30.761Z,92.55
2022-11-20T13:04:30.754Z,92.55
2022-11-20T13:05:30.759Z,92.35
2022-11-20T13:06:30.724Z,92.55
2022-11-20T13:07:30.791Z,92.51
2022-11-20T13:08:30.735Z,92.93
2022-11-20T13:09:30.697Z,92.82
2022-11-20T13:10:30.688Z,93.13
2022-11-20T13:11:30.712Z,92.82
2022-11-20T13:12:30.700Z,92.21
2022-11-20T13:13:30.683Z,92.51
2022-11-20T13:14:30.669Z,92.61
2022-11-20T13:15:30.629Z,92.21
2022-11-20T13:16:30.620Z,92.16
2022-11-20T13:17:30.632Z,92.61
2022-11-20T13:18:30.643Z,92.82
2022-11-20T13:19:30.583Z,92.93
2022-11-20T13:20:30.583Z,92.51
2022-11-20T13:21:30.570Z,92.41
2022-11-20T13:22:30.615Z,92.72
2022-11-20T13:23:30.559Z,92.61
2022-11-20T13:24:30.547Z,92.78
2022-11-20T13:25:30.544Z,92.47
2022-11-20T13:26:30.552Z,92.47
2022-11-20T13:27:30.507Z,92.99
2022-11-20T13:28:30.545Z,92.99
2022-11-20T13:29:30.490Z,92.99
2022-11-20T13:30:30.489Z,93.30
2022-11-20T13:31:30.478Z,92.47
2022-11-20T13:32:30.496Z,92.99
2022-11-20T13:33:30.457Z,92.57
2022-11-20T13:34:30.505Z,92.47
2022-11-20T13:35:30.430Z,92.41
2022-11-20T13:36:30.449Z,92.31
2022-11-20T13:37:30.397Z,92.88
2022-11-20T13:38:33.835Z,93.24
2022-11-20T13:39:30.383Z,93.13
2022-11-20T13:40:30.366Z,92.93
2022-11-20T13:41:30.356Z,93.34
2022-11-20T13:42:30.339Z,93.03
2022-11-20T13:43:30.329Z,92.82
2022-11-20T13:44:30.417Z,93.13
2022-11-20T13:45:30.314Z,92.82
2022-11-20T13:46:30.305Z,93.44
2022-11-20T13:47:30.340Z,93.19
2022-11-20T13:48:30.352Z,93.13
2022-11-20T13:49:30.281Z,93.75
2022-11-20T13:50:30.338Z,93.54
2022-11-20T13:51:30.233Z,93.54
2022-11-20T13:52:30.228Z,93.34
2022-11-20T13:53:30.354Z,93.34
2022-11-20T13:54:30.211Z,94.17
2022-11-20T13:55:30.279Z,94.47
2022-11-20T13:56:30.221Z,94.02
2022-11-20T13:57:30.183Z,93.96
2022-11-20T13:58:30.215Z,94.17
2022-11-20T13:59:30.163Z,95.56
2022-11-20T14:00:30.187Z,94.74
2022-11-20T14:01:30.466Z,94.43
2022-11-20T14:02:30.165Z,94.32
2022-11-20T14:04:04.078Z,94.12
2022-11-20T14:04:31.122Z,94.12
2022-11-20T14:05:30.088Z,93.81
2022-11-20T14:06:30.235Z,94.02
2022-11-20T14:07:30.134Z,93.09
2022-11-20T14:08:30.084Z,93.40
2022-11-20T14:09:30.058Z,93.71
2022-11-20T14:10:31.965Z,94.12
2022-11-20T14:11:30.036Z,93.81
2022-11-20T14:12:30.040Z,94.06
2022-11-20T14:13:29.997Z,93.75
2022-11-20T14:14:30.060Z,94.37
2022-11-20T14:15:29.996Z,94.47
2022-11-20T14:16:29.979Z,94.32
2022-11-20T14:17:29.955Z,94.47
2022-11-20T14:18:29.948Z,94.47
2022-11-20T14:19:29.951Z,94.43
2022-11-20T14:20:29.924Z,94.37
2022-11-20T14:21:29.956Z,94.37
2022-11-20T14:22:29.899Z,94.47
2022-11-20T14:23:30.418Z,94.43
2022-11-20T14:24:29.917Z,94.32
2022-11-20T14:25:29.891Z,94.43
2022-11-20T14:26:29.854Z,93.91
2022-11-20T14:27:29.867Z,94.12
2022-11-20T14:28:29.838Z,94.32
2022-11-20T14:29:29.822Z,94.53
2022-11-20T14:30:29.833Z,93.91
2022-11-20T14:31:29.808Z,94.37
2022-11-20T14:32:29.816Z,94.37
2022-11-20T14:33:29.822Z,94.47
2022-11-20T14:34:29.780Z,94.68
2022-11-20T14:35:29.785Z,94.47
2022-11-20T14:36:29.765Z,94.99
2022-11-20T14:37:29.748Z,94.57
2022-11-20T14:38:29.795Z,94.57
2022-11-20T14:39:29.714Z,94.68
2022-11-20T14:40:29.783Z,94.99
2022-11-20T14:41:29.770Z,94.78
2022-11-20T14:42:29.735Z,94.27
2022-11-20T14:43:29.710Z,94.57
2022-11-20T14:44:29.686Z,94.53
2022-11-20T14:45:29.643Z,94.68
2022-11-20T14:46:29.689Z,94.89
2022-11-20T14:47:29.617Z,94.89
2022-11-20T14:48:29.639Z,94.84
2022-11-20T14:49:29.619Z,94.57
2022-11-20T14:50:29.588Z,94.78
2022-11-20T14:51:29.627Z,94.78
2022-11-20T14:52:29.606Z,94.89
2022-11-20T14:53:29.555Z,95.20
2022-11-20T14:54:29.640Z,95.20
2022-11-20T14:55:29.559Z,95.30
2022-11-20T14:56:29.529Z,94.99
2022-11-20T14:57:29.537Z,94.78
2022-11-20T14:58:29.513Z,95.09
2022-11-20T14:59:29.559Z,94.99
2022-11-20T15:00:29.509Z,95.40
2022-11-20T15:01:29.531Z,95.30
2022-11-20T15:02:29.489Z,95.20
2022-11-20T15:03:31.942Z,95.09
2022-11-20T15:04:29.598Z,95.09
2022-11-20T15:05:29.461Z,94.99
2022-11-20T15:06:29.431Z,95.20
2022-11-20T15:07:29.574Z,95.40
2022-11-20T15:08:29.393Z,95.61
2022-11-20T15:09:29.431Z,95.50
2022-11-20T15:10:29.406Z,95.40
2022-11-20T15:11:29.363Z,95.40
2022-11-20T15:12:29.377Z,96.23
2022-11-20T15:13:29.344Z,96.02
2022-11-20T15:14:29.333Z,96.33
2022-11-20T15:15:29.314Z,96.64
2022-11-20T15:16:29.322Z,96.64
2022-11-20T15:17:29.323Z,96.64
2022-11-20T15:18:29.305Z,96.64
2022-11-20T15:19:29.291Z,96.23
2022-11-20T15:20:29.263Z,96.02
2022-11-20T15:21:29.256Z,95.92
2022-11-20T15:22:29.246Z,95.77
2022-11-20T15:23:29.278Z,95.81
2022-11-20T15:24:29.225Z,95.98
2022-11-20T15:25:29.266Z,95.67
2022-11-20T15:26:29.204Z,95.36
2022-11-20T15:27:29.208Z,95.56
2022-11-20T15:28:29.210Z,95.36
2022-11-20T15:29:29.177Z,95.25
2022-11-20T15:30:29.168Z,95.46
2022-11-20T15:31:29.191Z,96.18
2022-11-20T15:32:29.135Z,95.73
2022-11-20T15:33:29.145Z,96.03
2022-11-20T15:34:29.121Z,96.24
2022-11-20T15:35:29.120Z,96.55
2022-11-20T15:36:29.102Z,96.34
2022-11-20T15:37:30.146Z,96.14
2022-11-20T15:38:29.067Z,96.66
2022-11-20T15:39:29.064Z,96.75
2022-11-20T15:40:29.049Z,96.24
2022-11-20T15:41:29.041Z,96.34
2022-11-20T15:42:29.076Z,96.24
2022-11-20T15:43:29.016Z,96.24
2022-11-20T15:44:29.029Z,96.55
2022-11-20T15:45:29.000Z,96.91
2022-11-20T15:46:28.989Z,96.86
2022-11-20T15:47:29.000Z,96.66
2022-11-20T15:48:28.989Z,97.17
2022-11-20T15:49:28.954Z,97.17
2022-11-20T15:50:28.961Z,97.31
2022-11-20T15:51:28.938Z,97.42
2022-11-20T15:52:36.340Z,97.31
2022-11-20T15:53:29.917Z,97.11
2022-11-20T15:54:28.912Z,97.83
2022-11-20T15:55:28.882Z,97.83
2022-11-20T15:56:28.893Z,97.83
2022-11-20T15:57:28.880Z,97.73
2022-11-20T15:58:28.856Z,98.35
2022-11-20T15:59:28.838Z,98.14
2022-11-20T16:00:28.826Z,98.35
2022-11-20T16:01:28.879Z,97.73
2022-11-20T16:02:28.825Z,97.83
2022-11-20T16:03:28.816Z,97.83
2022-11-20T16:04:28.809Z,98.24
2022-11-20T16:05:28.796Z,97.73
2022-11-20T16:06:28.768Z,98.03
2022-11-20T16:07:28.845Z,98.03
2022-11-20T16:08:28.753Z,98.86
2022-11-20T16:09:28.776Z,98.55
2022-11-20T16:10:28.733Z,98.45
2022-11-20T16:11:28.714Z,99.07
2022-11-20T16:12:28.705Z,99.01
2022-11-20T16:13:28.696Z,98.86
2022-11-20T16:14:28.719Z,99.01
2022-11-20T16:15:28.699Z,99.01
2022-11-20T16:16:28.678Z,98.80
2022-11-20T16:17:28.652Z,98.80
2022-11-20T16:18:28.643Z,98.60
2022-11-20T16:19:28.676Z,98.80
2022-11-20T16:20:28.677Z,98.91
2022-11-20T16:21:28.603Z,99.32
2022-11-20T16:22:28.652Z,99.32
2022-11-20T16:23:28.582Z,98.91
2022-11-20T16:24:28.578Z,98.80
2022-11-20T16:25:28.584Z,99.32
2022-11-20T16:26:28.567Z,99.11
2022-11-20T16:27:28.537Z,99.22
2022-11-20T16:28:28.535Z,99.73
2022-11-20T16:29:28.564Z,99.32
2022-11-20T16:30:28.504Z,99.84
2022-11-20T16:31:28.579Z,99.52
2022-11-20T16:32:28.485Z,99.11
2022-11-20T16:33:28.487Z,99.43
2022-11-20T16:34:28.846Z,99.52
2022-11-20T16:35:28.476Z,99.01
2022-11-20T16:36:28.490Z,99.22
2022-11-20T16:37:28.463Z,99.11
2022-11-20T16:38:28.433Z,99.22
2022-11-20T16:39:28.409Z,99.52
2022-11-20T16:40:28.395Z,99.43
2022-11-20T16:41:28.405Z,99.52
2022-11-20T16:42:28.377Z,99.52
2022-11-20T16:43:28.382Z,99.58
2022-11-20T16:44:28.352Z,99.73
2022-11-20T16:45:33.595Z,99.73
2022-11-20T16:46:29.325Z,99.84
2022-11-20T16:47:28.347Z,99.73
2022-11-20T16:48:29.407Z,99.94
2022-11-20T16:49:28.318Z,99.58
2022-11-20T16:50:28.284Z,99.90
2022-11-20T16:51:28.274Z,99.99
2022-11-20T16:52:28.266Z,99.99
2022-11-20T16:53:28.259Z,99.99
2022-11-20T16:54:28.303Z,99.99
2022-11-20T16:55:28.267Z,99.99
2022-11-20T16:56:28.234Z,99.99
2022-11-20T16:57:28.224Z,99.99
2022-11-20T16:58:28.194Z,99.99
2022-11-20T16:59:28.190Z,99.99
2022-11-20T17:00:28.177Z,99.99
2022-11-20T17:01:28.231Z,99.99
2022-11-20T17:02:28.164Z,99.99
2022-11-20T17:03:28.156Z,99.99
2022-11-20T17:04:28.138Z,99.99
2022-11-20T17:05:28.206Z,99.99
2022-11-20T17:06:28.174Z,99.94
2022-11-20T17:07:28.244Z,99.99
2022-11-20T17:08:28.124Z,99.99
2022-11-20T17:09:28.075Z,99.99
2022-11-20T17:10:28.084Z,99.99
2022-11-20T17:11:28.064Z,99.99
2022-11-20T17:12:28.073Z,99.99
2022-11-20T17:13:28.038Z,99.99
2022-11-20T17:14:28.028Z,99.99
2022-11-20T17:15:28.019Z,99.99
2022-11-20T17:16:28.034Z,99.99
2022-11-20T17:17:28.009Z,99.99
2022-11-20T17:18:28.024Z,99.99
2022-11-20T17:19:27.969Z,99.99
2022-11-20T17:20:27.964Z,99.99
2022-11-20T17:21:27.974Z,99.99
2022-11-20T17:22:28.153Z,99.99
2022-11-20T17:23:27.931Z,99.99
2022-11-20T17:24:31.794Z,99.99
2022-11-20T17:25:27.907Z,99.99
2022-11-20T17:26:27.912Z,99.99
2022-11-20T17:27:27.888Z,99.99
2022-11-20T17:28:27.869Z,99.99
2022-11-20T17:29:27.860Z,99.99
2022-11-20T17:30:27.893Z,99.99
2022-11-20T17:31:27.858Z,99.99
2022-11-20T17:32:27.822Z,99.99
2022-11-20T17:33:27.858Z,99.99
2022-11-20T17:34:27.802Z,99.99
2022-11-20T17:35:27.811Z,99.99
2022-11-20T17:36:27.816Z,99.99
2022-11-20T17:37:27.832Z,99.99
2022-11-20T17:38:27.790Z,99.99
2022-11-20T17:39:27.816Z,99.99
2022-11-20T17:40:28.025Z,99.99
2022-11-20T17:41:27.745Z,99.99
2022-11-20T17:42:27.777Z,99.99
2022-11-20T17:43:31.537Z,99.99
2022-11-20T17:44:27.724Z,99.99
2022-11-20T17:45:27.720Z,99.99
2022-11-20T17:46:27.670Z,99.99
2022-11-20T17:47:27.673Z,99.99
2022-11-20T17:48:27.663Z,99.99
2022-11-20T17:49:28.576Z,99.99
2022-11-20T17:50:27.649Z,99.99
2022-11-20T17:51:27.624Z,99.99
2022-11-20T17:52:27.647Z,99.99
2022-11-20T17:53:27.609Z,99.99
2022-11-20T17:54:27.613Z,99.99
2022-11-20T17:55:27.577Z,99.99
2022-11-20T17:56:27.575Z,99.99
2022-11-20T17:57:27.575Z,99.99
2022-11-20T17:58:27.576Z,99.99
2022-11-20T17:59:27.543Z,99.99
2022-11-20T18:00:27.524Z,99.99
2022-11-20T18:01:27.593Z,99.99
2022-11-20T18:02:35.133Z,99.99
2022-11-20T18:03:36.695Z,99.99
2022-11-20T18:04:27.516Z,99.99
2022-11-20T18:05:27.468Z,99.99
2022-11-20T18:06:27.458Z,99.99
2022-11-20T18:07:27.561Z,99.99
2022-11-20T18:08:27.456Z,99.99
2022-11-20T18:09:27.445Z,99.99
2022-11-20T18:10:27.432Z,99.99
2022-11-20T18:11:27.406Z,99.99
2022-11-20T18:12:27.397Z,99.99
2022-11-20T18:13:27.395Z,99.99
2022-11-20T18:14:27.360Z,99.99
2022-11-20T18:15:27.351Z,99.99
2022-11-20T18:16:27.350Z,99.99
2022-11-20T18:17:27.350Z,99.99
2022-11-20T18:18:27.347Z,99.94
2022-11-20T18:19:31.477Z,99.99
2022-11-20T18:20:31.283Z,99.99
2022-11-20T18:21:28.323Z,99.99
2022-11-20T18:22:27.283Z,99.94